createdAt,value
2022-12-04T00:00:16.969Z,14.80
2022-12-04T00:03:06.788Z,15.93
2022-12-04T00:06:07.212Z,14.25
2022-12-04T00:08:57.369Z,14.32
2022-12-04T00:11:47.207Z,15.98
2022-12-04T00:14:54.542Z,18.52
2022-12-04T00:17:50.096Z,12.32
2022-12-04T00:20:42.528Z,10.95
2022-12-04T00:23:32.139Z,14.82
2022-12-04T00:26:27.552Z,13.88
2022-12-04T00:29:17.992Z,12.88
2022-12-04T00:32:08.065Z,12.45
2022-12-04T00:34:58.450Z,12.82
2022-12-04T00:37:48.330Z,11.30
2022-12-04T00:40:38.170Z,11.63
2022-12-04T00:43:28.257Z,10.05
2022-12-04T00:46:18.253Z,14.18
2022-12-04T00:49:07.886Z,13.30
2022-12-04T00:51:57.628Z,11.82
2022-12-04T00:54:47.329Z,10.25
2022-12-04T00:57:37.021Z,10.13
2022-12-04T01:00:26.992Z,11.32
2022-12-04T01:03:16.764Z,14.15
2022-12-04T01:06:20.348Z,9.43
2022-12-04T01:09:12.849Z,10.30
2022-12-04T01:12:02.728Z,9.88
2022-12-04T01:14:52.429Z,10.05
2022-12-04T01:17:41.975Z,10.05
2022-12-04T01:20:31.787Z,10.60
2022-12-04T01:23:21.706Z,10.23
2022-12-04T01:26:11.785Z,7.97
2022-12-04T01:29:02.054Z,9.63
2022-12-04T01:31:51.601Z,8.68
2022-12-04T01:34:41.037Z,8.80
2022-12-04T01:37:33.370Z,11.02
2022-12-04T01:40:23.076Z,8.85
2022-12-04T01:43:14.649Z,9.73
2022-12-04T01:46:05.239Z,8.88
2022-12-04T01:48:55.921Z,7.82
2022-12-04T01:51:50.682Z,11.48
2022-12-04T01:54:45.571Z,7.10
2022-12-04T01:57:36.845Z,9.60
2022-12-04T02:00:27.295Z,7.78
2022-12-04T02:03:16.770Z,9.20
2022-12-04T02:06:07.625Z,9.85
2022-12-04T02:08:57.295Z,8.63
2022-12-04T02:11:54.648Z,7.70
2022-12-04T02:15:19.529Z,9.18
2022-12-04T02:18:28.090Z,7.38
2022-12-04T02:21:29.867Z,7.63
2022-12-04T02:24:46.777Z,9.23
2022-12-04T02:27:42.656Z,9.27
2022-12-04T02:30:38.384Z,7.72
2022-12-04T02:33:32.987Z,7.40
2022-12-04T02:36:32.663Z,6.78
2022-12-04T02:39:38.194Z,7.22
2022-12-04T02:42:46.892Z,6.10
2022-12-04T02:45:45.405Z,6.97
2022-12-04T02:48:39.612Z,9.80
2022-12-04T02:51:34.048Z,8.15
2022-12-04T02:54:37.208Z,7.10
2022-12-04T02:57:31.288Z,7.22
2022-12-04T03:00:21.560Z,8.70
2022-12-04T03:03:20.749Z,5.82
2022-12-04T03:06:15.421Z,9.07
2022-12-04T03:09:12.255Z,6.88
2022-12-04T03:12:17.033Z,6.85
2022-12-04T03:15:19.236Z,7.82
2022-12-04T03:18:15.488Z,6.88
2022-12-04T03:21:11.710Z,5.95
2022-12-04T03:24:37.923Z,5.72
2022-12-04T03:27:50.741Z,5.78
2022-12-04T03:30:51.561Z,6.15
2022-12-04T03:33:47.848Z,7.22
2022-12-04T03:36:54.637Z,5.93
2022-12-04T03:40:02.890Z,5.85
2022-12-04T03:43:07.116Z,7.95
2022-12-04T03:46:31.033Z,6.35
2022-12-04T03:49:29.573Z,5.97
2022-12-04T03:52:37.307Z,5.88
2022-12-04T03:55:36.170Z,5.25
2022-12-04T03:58:30.887Z,5.28
2022-12-04T04:01:26.753Z,5.00
2022-12-04T04:04:23.377Z,5.80
2022-12-04T04:07:22.809Z,5.28
2022-12-04T04:10:25.890Z,6.25
2022-12-04T04:13:38.776Z,5.65
2022-12-04T04:16:49.211Z,5.10
2022-12-04T04:19:59.989Z,4.90
2022-12-04T04:23:12.073Z,5.80
2022-12-04T04:26:05.551Z,4.82
2022-12-04T04:28:55.170Z,4.68
2022-12-04T04:32:08.530Z,4.65
2022-12-04T04:35:20.770Z,4.30
2022-12-04T04:38:15.529Z,4.65
2022-12-04T04:41:23.808Z,6.72
2022-12-04T04:44:34.733Z,4.82
2022-12-04T04:47:34.056Z,5.07
2022-12-04T04:50:24.453Z,4.70
2022-12-04T04:53:38.494Z,5.25
2022-12-04T04:56:28.432Z,3.90
2022-12-04T04:59:18.091Z,4.35
2022-12-04T05:02:08.194Z,4.22
2022-12-04T05:04:58.263Z,7.35
2022-12-04T05:07:48.377Z,4.05
2022-12-04T05:10:38.169Z,3.80
2022-12-04T05:13:29.130Z,4.68
2022-12-04T05:16:19.377Z,6.43
2022-12-04T05:19:27.555Z,4.63
2022-12-04T05:22:17.452Z,4.68
2022-12-04T05:25:08.048Z,4.05
2022-12-04T05:27:58.013Z,4.53
2022-12-04T05:30:56.221Z,4.13
2022-12-04T05:33:46.452Z,3.58
2022-12-04T05:36:36.017Z,4.72
2022-12-04T05:39:25.708Z,4.32
2022-12-04T05:42:16.369Z,3.60
2022-12-04T05:45:06.216Z,3.67
2022-12-04T05:47:56.028Z,3.55
2022-12-04T05:50:45.628Z,4.03
2022-12-04T05:53:35.446Z,3.80
2022-12-04T05:56:25.472Z,3.83
2022-12-04T05:59:16.319Z,4.13
2022-12-04T06:02:06.131Z,4.13
2022-12-04T06:04:55.710Z,3.97
2022-12-04T06:07:45.549Z,4.15
2022-12-04T06:10:35.234Z,3.85
2022-12-04T06:13:24.927Z,4.07
2022-12-04T06:16:19.632Z,3.97
2022-12-04T06:19:20.671Z,3.75
2022-12-04T06:22:10.768Z,4.18
2022-12-04T06:25:00.348Z,3.50
2022-12-04T06:27:50.411Z,3.85
2022-12-04T06:30:39.883Z,4.65
2022-12-04T06:33:30.089Z,3.85
2022-12-04T06:36:22.331Z,3.80
2022-12-04T06:39:15.552Z,4.00
2022-12-04T06:42:08.073Z,3.53
2022-12-04T06:44:57.870Z,4.10
2022-12-04T06:47:47.500Z,3.60
2022-12-04T06:50:37.390Z,3.63
2022-12-04T06:53:28.850Z,3.60
2022-12-04T06:56:20.756Z,3.42
2022-12-04T06:59:11.570Z,3.92
2022-12-04T07:02:01.061Z,3.60
2022-12-04T07:04:50.657Z,3.53
2022-12-04T07:07:40.370Z,3.50
2022-12-04T07:10:30.034Z,3.33
2022-12-04T07:13:19.816Z,3.63
2022-12-04T07:16:12.384Z,3.70
2022-12-04T07:19:02.447Z,3.40
2022-12-04T07:21:52.088Z,3.30
2022-12-04T07:24:41.721Z,3.60
2022-12-04T07:27:33.470Z,3.28
2022-12-04T07:30:23.302Z,3.72
2022-12-04T07:33:12.985Z,3.42
2022-12-04T07:36:03.927Z,3.10
2022-12-04T07:38:55.682Z,3.33
2022-12-04T07:41:45.492Z,3.63
2022-12-04T07:44:36.808Z,3.50
2022-12-04T07:47:26.688Z,3.88
2022-12-04T07:50:16.527Z,3.20
2022-12-04T07:53:06.295Z,3.28
2022-12-04T07:55:55.857Z,3.35
2022-12-04T07:58:45.951Z,3.40
2022-12-04T08:01:35.947Z,3.33
2022-12-04T08:04:26.823Z,3.20
2022-12-04T08:07:16.751Z,3.22
2022-12-04T08:10:07.318Z,3.30
2022-12-04T08:12:56.764Z,3.00
2022-12-04T08:15:46.608Z,3.20
2022-12-04T08:18:36.810Z,3.17
2022-12-04T08:21:29.440Z,3.17
2022-12-04T08:24:19.088Z,3.00
2022-12-04T08:27:08.988Z,3.17
2022-12-04T08:29:58.754Z,3.00
2022-12-04T08:32:49.488Z,3.67
2022-12-04T08:35:39.523Z,3.17
2022-12-04T08:38:29.330Z,3.42
2022-12-04T08:41:23.362Z,3.20
2022-12-04T08:44:13.872Z,4.00
2022-12-04T08:47:06.771Z,3.10
2022-12-04T08:49:57.190Z,3.30
2022-12-04T08:52:46.988Z,3.15
2022-12-04T08:55:37.009Z,3.10
2022-12-04T08:58:27.091Z,3.00
2022-12-04T09:01:17.996Z,3.05
2022-12-04T09:04:08.089Z,3.03
2022-12-04T09:06:57.807Z,3.13
2022-12-04T09:09:48.516Z,3.10
2022-12-04T09:12:38.088Z,2.83
2022-12-04T09:15:27.764Z,3.50
2022-12-04T09:18:17.731Z,2.95
2022-12-04T09:21:10.676Z,2.88
2022-12-04T09:24:01.301Z,2.92
2022-12-04T09:26:50.989Z,3.10
2022-12-04T09:29:40.812Z,2.92
2022-12-04T09:32:30.350Z,2.95
2022-12-04T09:35:20.562Z,3.20
2022-12-04T09:38:10.208Z,2.90
2022-12-04T09:41:27.732Z,2.90
2022-12-04T09:44:17.312Z,3.00
2022-12-04T09:47:28.283Z,3.35
2022-12-04T09:50:28.188Z,3.00
2022-12-04T09:53:28.529Z,2.95
2022-12-04T09:56:23.477Z,3.05
2022-12-04T09:59:26.430Z,3.00
2022-12-04T10:02:42.372Z,3.13
2022-12-04T10:05:53.895Z,2.92
2022-12-04T10:08:47.744Z,3.17
2022-12-04T10:12:19.890Z,2.83
2022-12-04T10:15:44.570Z,3.22
2022-12-04T10:19:05.711Z,3.33
2022-12-04T10:22:23.485Z,3.03
2022-12-04T10:25:19.571Z,2.83
2022-12-04T10:28:24.870Z,3.15
2022-12-04T10:31:17.518Z,3.05
2022-12-04T10:34:19.468Z,3.20
2022-12-04T10:37:15.090Z,3.30
2022-12-04T10:40:21.746Z,3.13
2022-12-04T10:43:18.584Z,3.20
2022-12-04T10:46:11.047Z,2.90
2022-12-04T10:49:13.887Z,2.90
2022-12-04T10:52:04.016Z,3.63
2022-12-04T10:55:00.773Z,2.92
2022-12-04T10:57:50.487Z,2.90
2022-12-04T11:00:40.828Z,2.90
2022-12-04T11:03:31.069Z,3.05
2022-12-04T11:06:27.567Z,3.10
2022-12-04T11:09:25.779Z,3.63
2022-12-04T11:12:21.008Z,3.00
2022-12-04T11:15:16.288Z,3.25
2022-12-04T11:18:39.028Z,3.15
2022-12-04T11:21:32.266Z,3.15
2022-12-04T11:24:38.926Z,3.33
2022-12-04T11:27:34.132Z,3.33
2022-12-04T11:30:41.950Z,2.90
2022-12-04T11:33:36.607Z,3.03
2022-12-04T11:36:43.373Z,3.20
2022-12-04T11:39:41.541Z,3.25
2022-12-04T11:42:32.897Z,3.20
2022-12-04T11:45:24.528Z,3.30
2022-12-04T11:48:20.103Z,3.38
2022-12-04T11:51:35.844Z,3.25
2022-12-04T11:54:54.126Z,2.90
2022-12-04T11:57:54.432Z,3.45
2022-12-04T12:01:07.036Z,3.30
2022-12-04T12:04:14.667Z,3.38
2022-12-04T12:07:07.536Z,3.40
2022-12-04T12:10:03.092Z,3.47
2022-12-04T12:13:20.926Z,3.58
2022-12-04T12:16:31.790Z,3.33
2022-12-04T12:19:39.526Z,3.05
2022-12-04T12:22:43.406Z,3.20
2022-12-04T12:26:07.727Z,3.45
2022-12-04T12:29:26.001Z,3.20
2022-12-04T12:32:36.656Z,2.95
2022-12-04T12:35:37.449Z,2.70
2022-12-04T12:38:34.923Z,2.83
2022-12-04T12:41:36.086Z,2.80
2022-12-04T12:44:47.168Z,3.00
2022-12-04T12:47:42.646Z,2.80
2022-12-04T12:51:14.987Z,3.03
2022-12-04T12:54:48.765Z,3.55
2022-12-04T12:57:43.085Z,2.95
2022-12-04T13:00:38.527Z,2.70
2022-12-04T13:03:56.186Z,2.85
2022-12-04T13:06:48.300Z,2.80
2022-12-04T13:09:43.030Z,2.67
2022-12-04T13:12:45.390Z,2.53
2022-12-04T13:15:44.006Z,2.75
2022-12-04T13:18:59.887Z,2.92
2022-12-04T13:22:00.887Z,3.47
2022-12-04T13:25:13.766Z,2.83
2022-12-04T13:28:37.647Z,2.77
2022-12-04T13:31:52.270Z,2.95
2022-12-04T13:35:00.667Z,2.95
2022-12-04T13:38:02.207Z,2.63
2022-12-04T13:40:59.371Z,2.70
2022-12-04T13:43:51.284Z,2.80
2022-12-04T13:46:59.365Z,3.03
2022-12-04T13:49:49.365Z,2.85
2022-12-04T13:52:42.292Z,2.78
2022-12-04T13:55:31.845Z,2.58
2022-12-04T13:58:22.265Z,2.80
2022-12-04T14:01:37.319Z,3.17
2022-12-04T14:04:31.415Z,2.97
2022-12-04T14:08:05.683Z,2.65
2022-12-04T14:13:51.006Z,2.92
2022-12-04T14:16:42.858Z,2.97
2022-12-04T14:19:39.155Z,3.13
2022-12-04T14:22:44.112Z,2.97
2022-12-04T14:25:40.051Z,3.10
2022-12-04T14:28:37.307Z,2.72
2022-12-04T14:31:41.694Z,3.65
2022-12-04T14:34:35.628Z,3.17
2022-12-04T14:37:42.287Z,3.30
2022-12-04T14:40:50.727Z,2.72
2022-12-04T14:43:43.047Z,3.65
2022-12-04T14:46:38.957Z,3.25
2022-12-04T14:50:15.685Z,2.70
2022-12-04T14:53:10.966Z,2.92
2022-12-04T14:56:24.530Z,3.30
2022-12-04T14:59:20.860Z,3.03
2022-12-04T15:02:16.907Z,2.95
2022-12-04T15:05:30.607Z,2.40
2022-12-04T15:08:22.081Z,3.47
2022-12-04T15:11:38.126Z,2.90
2022-12-04T15:14:27.926Z,2.88
2022-12-04T15:17:20.007Z,3.17
2022-12-04T15:20:21.206Z,3.05
2022-12-04T15:23:16.345Z,3.63
2022-12-04T15:26:11.674Z,3.13
2022-12-04T15:29:05.109Z,3.03
2022-12-04T15:31:58.454Z,2.58
2022-12-04T15:37:46.286Z,2.60
2022-12-04T15:40:35.708Z,2.50
2022-12-04T15:43:33.770Z,3.63
2022-12-04T15:46:44.912Z,2.22
2022-12-04T15:49:35.459Z,2.42
2022-12-04T15:52:27.047Z,2.50
2022-12-04T15:55:19.948Z,2.33
2022-12-04T15:58:40.667Z,2.28
2022-12-04T16:01:41.121Z,2.90
2022-12-04T16:04:41.067Z,2.35
2022-12-04T16:07:34.272Z,2.45
2022-12-04T16:10:27.169Z,2.47
2022-12-04T16:13:29.467Z,2.70
2022-12-04T16:16:23.248Z,2.33
2022-12-04T16:19:34.347Z,2.38
2022-12-04T16:22:25.847Z,2.63
2022-12-04T16:25:15.567Z,2.72
2022-12-04T16:28:05.386Z,2.60
2022-12-04T16:30:55.131Z,2.72
2022-12-04T16:33:45.487Z,2.60
2022-12-04T16:36:35.489Z,2.38
2022-12-04T16:39:25.010Z,2.47
2022-12-04T16:42:28.000Z,2.50
2022-12-04T16:45:28.036Z,2.53
2022-12-04T16:48:17.835Z,2.80
2022-12-04T16:51:07.802Z,2.40
2022-12-04T16:53:57.687Z,2.80
2022-12-04T16:56:47.550Z,2.88
2022-12-04T16:59:38.428Z,2.40
2022-12-04T17:02:28.927Z,2.58
2022-12-04T17:05:24.608Z,2.30
2022-12-04T17:08:14.694Z,2.47
2022-12-04T17:11:07.466Z,2.38
2022-12-04T17:13:57.227Z,2.60
2022-12-04T17:16:48.360Z,2.42
2022-12-04T17:19:38.106Z,2.20
2022-12-04T17:22:27.753Z,2.38
2022-12-04T17:25:18.408Z,2.63
2022-12-04T17:28:08.864Z,2.78
2022-12-04T17:30:59.435Z,2.80
2022-12-04T17:33:49.604Z,2.60
2022-12-04T17:36:39.245Z,2.38
2022-12-04T17:39:29.128Z,2.30
2022-12-04T17:42:19.086Z,2.67
2022-12-04T17:45:12.271Z,2.28
2022-12-04T17:48:02.174Z,2.72
2022-12-04T17:50:52.141Z,2.60
2022-12-04T17:53:42.506Z,4.10
2022-12-04T17:56:33.005Z,2.65
2022-12-04T17:59:22.766Z,2.65
2022-12-04T18:02:13.549Z,2.40
2022-12-04T18:05:03.049Z,2.78
2022-12-04T18:07:52.866Z,2.70
2022-12-04T18:10:42.485Z,2.25
2022-12-04T18:13:32.347Z,2.60
2022-12-04T18:16:22.583Z,2.40
2022-12-04T18:19:13.600Z,2.60
2022-12-04T18:22:06.656Z,2.30
2022-12-04T18:24:56.990Z,2.38
2022-12-04T18:27:46.964Z,2.78
2022-12-04T18:30:37.066Z,2.50
2022-12-04T18:33:27.085Z,2.30
2022-12-04T18:36:27.623Z,2.60
2022-12-04T18:39:23.893Z,3.03
2022-12-04T18:42:13.748Z,2.35
2022-12-04T18:45:03.343Z,2.47
2022-12-04T18:47:53.065Z,2.40
2022-12-04T18:50:44.666Z,2.95
2022-12-04T18:53:34.747Z,2.42
2022-12-04T18:56:24.507Z,2.20
2022-12-04T18:59:17.706Z,2.33
2022-12-04T19:02:10.902Z,2.40
2022-12-04T19:05:00.746Z,2.30
2022-12-04T19:07:51.514Z,2.80
2022-12-04T19:10:41.367Z,2.05
2022-12-04T19:13:31.350Z,2.20
2022-12-04T19:16:21.240Z,2.50
2022-12-04T19:19:16.114Z,2.75
2022-12-04T19:22:06.263Z,2.35
2022-12-04T19:24:55.943Z,2.50
2022-12-04T19:27:45.685Z,2.80
2022-12-04T19:30:36.164Z,2.30
2022-12-04T19:33:26.665Z,2.40
2022-12-04T19:36:16.886Z,2.63
2022-12-04T19:39:08.366Z,3.17
2022-12-04T19:41:58.575Z,2.47
2022-12-04T19:44:49.811Z,2.35
2022-12-04T19:47:39.787Z,3.35
2022-12-04T19:50:29.610Z,2.75
2022-12-04T19:53:19.565Z,2.42
2022-12-04T19:56:16.083Z,4.10
2022-12-04T19:59:09.006Z,2.40
2022-12-04T20:01:59.090Z,2.63
2022-12-04T20:04:48.957Z,2.47
2022-12-04T20:07:38.507Z,2.50
2022-12-04T20:10:27.884Z,2.30
2022-12-04T20:13:17.453Z,2.20
2022-12-04T20:16:09.458Z,4.95
2022-12-04T20:19:00.133Z,3.60
2022-12-04T20:21:49.628Z,2.40
2022-12-04T20:24:39.888Z,2.22
2022-12-04T20:27:29.788Z,2.58
2022-12-04T20:30:19.769Z,3.35
2022-12-04T20:33:09.766Z,5.13
2022-12-04T20:36:02.590Z,2.30
2022-12-04T20:38:56.508Z,2.88
2022-12-04T20:41:46.611Z,2.50
2022-12-04T20:44:36.429Z,2.55
2022-12-04T20:47:27.088Z,4.05
2022-12-04T20:50:17.127Z,3.33
2022-12-04T20:53:06.970Z,2.30
2022-12-04T20:55:57.706Z,2.65
2022-12-04T20:58:47.768Z,2.35
2022-12-04T21:01:38.297Z,2.38
2022-12-04T21:04:28.328Z,3.35
2022-12-04T21:07:18.328Z,2.55
2022-12-04T21:10:09.328Z,2.50
2022-12-04T21:13:17.928Z,2.35
2022-12-04T21:16:08.727Z,2.60
2022-12-04T21:18:58.668Z,2.42
2022-12-04T21:21:49.165Z,2.63
2022-12-04T21:24:40.296Z,2.65
2022-12-04T21:27:29.850Z,3.63
2022-12-04T21:30:19.727Z,2.40
2022-12-04T21:33:09.546Z,2.30
2022-12-04T21:36:09.044Z,2.50
2022-12-04T21:38:59.613Z,2.53
2022-12-04T21:42:07.407Z,3.30
2022-12-04T21:44:58.265Z,2.42
2022-12-04T21:47:48.107Z,4.00
2022-12-04T21:50:37.666Z,2.28
2022-12-04T21:53:27.393Z,2.33
2022-12-04T21:56:17.148Z,5.90
2022-12-04T21:59:07.370Z,2.75
2022-12-04T22:01:56.913Z,2.63
2022-12-04T22:04:46.996Z,2.45
2022-12-04T22:07:36.769Z,2.80
2022-12-04T22:10:27.005Z,2.42
2022-12-04T22:13:16.585Z,3.30
2022-12-04T22:16:08.778Z,2.40
2022-12-04T22:19:00.086Z,134.27
2022-12-04T22:21:50.007Z,246.05
2022-12-04T22:24:39.728Z,297.70
2022-12-04T22:27:29.407Z,394.80
2022-12-04T22:30:19.446Z,305.40
2022-12-04T22:33:09.297Z,322.20
2022-12-04T22:36:13.609Z,345.50
2022-12-04T22:39:09.923Z,321.17
2022-12-04T22:42:00.751Z,308.35
2022-12-04T22:44:50.509Z,352.45
2022-12-04T22:47:40.498Z,399.30
2022-12-04T22:50:30.344Z,490.50
2022-12-04T22:53:20.250Z,496.08
2022-12-04T22:56:11.154Z,496.30
2022-12-04T22:59:02.047Z,490.23
2022-12-04T23:01:51.731Z,459.95
2022-12-04T23:04:41.428Z,432.88
2022-12-04T23:07:31.075Z,480.98
2022-12-04T23:10:20.687Z,533.92
2022-12-04T23:13:10.405Z,556.47
2022-12-04T23:16:02.519Z,568.05
2022-12-04T23:18:55.926Z,521.90
2022-12-04T23:21:47.309Z,535.53
2022-12-04T23:24:40.221Z,568.28
2022-12-04T23:27:31.952Z,582.78
2022-12-04T23:30:27.482Z,581.55
2022-12-04T23:33:19.388Z,581.15
2022-12-04T23:36:11.952Z,551.25
2022-12-04T23:39:02.829Z,590.42
2022-12-04T23:41:55.773Z,620.22
2022-12-04T23:44:45.444Z,627.20
2022-12-04T23:47:36.847Z,696.03
2022-12-04T23:50:26.908Z,785.65
2022-12-04T23:53:16.688Z,796.63
2022-12-04T23:56:15.876Z,803.08
2022-12-04T23:59:05.532Z,830.38
